Time,TemperatureF,DewpointF,PressureIn,WindDirection,WindDirectionDegrees,WindSpeedMPH,WindSpeedGustMPH,Humidity,HourlyPrecipIn,Conditions,Clouds,dailyrainin,SoftwareType,DateUTC
2013-02-09 00:01:00,29.0,25.0,30.20,SE,130,7.0,11.0,84,-99.99,,,-99.99,,2013-02-09 06:01:00,
2013-02-09 00:11:00,29.0,25.0,30.20,SE,135,6.0,11.0,84,-99.99,,,-99.99,,2013-02-09 06:11:00,
2013-02-09 00:21:00,29.0,25.0,30.20,SE,135,6.0,11.0,84,-99.99,,,-99.99,,2013-02-09 06:21:00,
2013-02-09 00:32:00,30.0,26.0,30.20,SSE,160,6.0,9.0,85,-99.99,,,-99.99,,2013-02-09 06:32:00,
2013-02-09 00:42:00,29.0,26.0,30.21,SSE,165,6.0,10.0,85,-99.99,,,-99.99,,2013-02-09 06:42:00,
2013-02-09 00:51:00,29.0,26.0,30.21,SSE,165,6.0,10.0,85,-99.99,,,-99.99,,2013-02-09 06:51:00,
2013-02-09 01:01:00,29.0,25.0,30.21,SSE,150,4.0,6.0,85,-99.99,,,-99.99,,2013-02-09 07:01:00,
2013-02-09 01:11:00,29.0,25.0,30.21,SE,145,5.0,8.0,85,-99.99,,,-99.99,,2013-02-09 07:11:00,
2013-02-09 01:21:00,29.0,25.0,30.21,SE,145,5.0,8.0,85,-99.99,,,-99.99,,2013-02-09 07:21:00,
2013-02-09 01:31:00,29.0,25.0,30.21,SSE,160,7.0,9.0,85,-99.99,,,-99.99,,2013-02-09 07:31:00,
2013-02-09 01:42:00,29.0,25.0,30.21,SSE,155,7.0,11.0,85,-99.99,,,-99.99,,2013-02-09 07:42:00,
2013-02-09 01:51:00,29.0,25.0,30.21,SSE,155,7.0,11.0,85,-99.99,,,-99.99,,2013-02-09 07:51:00,
2013-02-09 02:01:00,29.0,25.0,30.21,SE,145,7.0,11.0,85,-99.99,,,-99.99,,2013-02-09 08:01:00,
2013-02-09 02:11:00,29.0,26.0,30.21,SSE,150,8.0,11.0,85,-99.99,,,-99.99,,2013-02-09 08:11:00,
2013-02-09 02:21:00,29.0,26.0,30.21,SSE,150,8.0,11.0,85,-99.99,,,-99.99,,2013-02-09 08:21:00,
2013-02-09 02:31:00,30.0,26.0,30.22,SSE,160,11.0,16.0,85,-99.99,,,-99.99,,2013-02-09 08:31:00,
2013-02-09 02:42:00,30.0,26.0,30.22,SSE,155,10.0,18.0,85,-99.99,,,-99.99,,2013-02-09 08:42:00,
2013-02-09 02:52:00,30.0,26.0,30.22,SSE,155,10.0,18.0,85,-99.99,,,-99.99,,2013-02-09 08:52:00,
2013-02-09 03:03:00,31.0,27.0,30.21,SSE,155,12.0,19.0,85,-99.99,,,-99.99,,2013-02-09 09:03:00,
2013-02-09 03:11:00,31.0,27.0,30.21,SSE,160,13.0,16.0,85,-99.99,,,-99.99,,2013-02-09 09:11:00,
2013-02-09 03:21:00,31.0,27.0,30.21,SSE,160,13.0,16.0,85,-99.99,,,-99.99,,2013-02-09 09:21:00,
2013-02-09 03:32:00,31.0,27.0,30.21,SSE,165,12.0,17.0,85,-99.99,,,-99.99,,2013-02-09 09:32:00,
2013-02-09 03:42:00,31.0,27.0,30.20,SSE,165,14.0,18.0,85,-99.99,,,-99.99,,2013-02-09 09:42:00,
2013-02-09 03:51:00,31.0,27.0,30.20,SSE,165,14.0,18.0,85,-99.99,,,-99.99,,2013-02-09 09:51:00,
2013-02-09 04:01:00,31.0,27.0,30.20,South,175,12.0,18.0,85,-99.99,,,-99.99,,2013-02-09 10:01:00,
2013-02-09 04:11:00,31.0,27.0,30.20,South,185,12.0,18.0,85,-99.99,,,-99.99,,2013-02-09 10:11:00,
2013-02-09 04:21:00,31.0,27.0,30.20,South,185,12.0,18.0,85,-99.99,,,-99.99,,2013-02-09 10:21:00,
2013-02-09 04:32:00,31.0,27.0,30.19,SSE,160,12.0,18.0,84,-99.99,,,-99.99,,2013-02-09 10:32:00,
2013-02-09 04:42:00,31.0,27.0,30.19,South,185,13.0,16.0,84,-99.99,,,-99.99,,2013-02-09 10:42:00,
2013-02-09 04:51:00,31.0,27.0,30.19,South,185,13.0,16.0,84,-99.99,,,-99.99,,2013-02-09 10:51:00,
2013-02-09 05:01:00,31.0,27.0,30.19,South,180,12.0,16.0,84,-99.99,,,-99.99,,2013-02-09 11:01:00,
2013-02-09 05:11:00,31.0,27.0,30.19,South,175,14.0,20.0,84,-99.99,,,-99.99,,2013-02-09 11:11:00,
2013-02-09 05:22:00,31.0,27.0,30.19,South,175,14.0,20.0,84,-99.99,,,-99.99,,2013-02-09 11:22:00,
2013-02-09 05:32:00,31.0,27.0,30.18,South,180,9.0,21.0,84,-99.99,,,-99.99,,2013-02-09 11:32:00,
2013-02-09 05:41:00,31.0,27.0,30.19,South,175,16.0,21.0,84,-99.99,,,-99.99,,2013-02-09 11:41:00,
2013-02-09 05:52:00,32.0,27.0,30.18,South,190,13.0,19.0,84,-99.99,,,-99.99,,2013-02-09 11:52:00,
2013-02-09 06:02:00,32.0,27.0,30.18,South,190,13.0,19.0,84,-99.99,,,-99.99,,2013-02-09 12:02:00,
2013-02-09 06:11:00,32.0,28.0,30.19,South,185,13.0,21.0,84,-99.99,,,-99.99,,2013-02-09 12:11:00,
2013-02-09 06:21:00,32.0,28.0,30.19,South,185,13.0,21.0,84,-99.99,,,-99.99,,2013-02-09 12:21:00,
2013-02-09 06:32:00,32.0,28.0,30.19,South,180,14.0,18.0,84,-99.99,,,-99.99,,2013-02-09 12:32:00,
2013-02-09 06:42:00,32.0,27.0,30.19,South,175,15.0,22.0,83,-99.99,,,-99.99,,2013-02-09 12:42:00,
2013-02-09 06:52:00,32.0,27.0,30.19,South,175,15.0,22.0,83,-99.99,,,-99.99,,2013-02-09 12:52:00,
2013-02-09 07:02:00,32.0,28.0,30.19,South,180,13.0,19.0,83,-99.99,,,-99.99,,2013-02-09 13:02:00,
2013-02-09 07:11:00,32.0,27.0,30.18,South,180,9.0,15.0,83,-99.99,,,-99.99,,2013-02-09 13:11:00,
2013-02-09 07:22:00,32.0,27.0,30.18,South,180,9.0,15.0,83,-99.99,,,-99.99,,2013-02-09 13:22:00,
2013-02-09 07:32:00,32.0,27.0,30.17,SSE,165,10.0,17.0,83,-99.99,,,-99.99,,2013-02-09 13:32:00,
2013-02-09 07:42:00,32.0,27.0,30.17,South,185,15.0,20.0,83,-99.99,,,-99.99,,2013-02-09 13:42:00,
2013-02-09 07:52:00,32.0,27.0,30.17,South,185,15.0,20.0,83,-99.99,,,-99.99,,2013-02-09 13:52:00,
2013-02-09 08:01:00,32.0,27.0,30.17,South,180,11.0,15.0,83,-99.99,,,-99.99,,2013-02-09 14:01:00,
2013-02-09 08:11:00,31.0,27.0,30.17,South,180,17.0,21.0,83,-99.99,,,-99.99,,2013-02-09 14:11:00,
2013-02-09 08:21:00,31.0,27.0,30.17,South,180,17.0,21.0,83,-99.99,,,-99.99,,2013-02-09 14:21:00,
2013-02-09 08:32:00,32.0,27.0,30.17,South,180,13.0,19.0,83,-99.99,,,-99.99,,2013-02-09 14:32:00,
2013-02-09 08:42:00,32.0,27.0,30.17,South,185,16.0,20.0,82,-99.99,,,-99.99,,2013-02-09 14:42:00,
2013-02-09 08:52:00,32.0,27.0,30.17,South,185,16.0,20.0,82,-99.99,,,-99.99,,2013-02-09 14:52:00,
2013-02-09 09:02:00,32.0,27.0,30.18,South,175,14.0,22.0,82,-99.99,,,-99.99,,2013-02-09 15:02:00,
2013-02-09 09:11:00,32.0,27.0,30.18,South,180,12.0,22.0,82,-99.99,,,-99.99,,2013-02-09 15:11:00,
2013-02-09 09:21:00,32.0,27.0,30.18,South,180,12.0,22.0,82,-99.99,,,-99.99,,2013-02-09 15:21:00,
2013-02-09 09:32:00,32.0,27.0,30.19,SSW,195,19.0,26.0,81,-99.99,,,-99.99,,2013-02-09 15:32:00,
2013-02-09 09:42:00,33.0,27.0,30.18,South,185,16.0,22.0,81,-99.99,,,-99.99,,2013-02-09 15:42:00,
2013-02-09 09:51:00,33.0,27.0,30.18,South,185,16.0,22.0,81,-99.99,,,-99.99,,2013-02-09 15:51:00,
2013-02-09 10:01:00,33.0,27.0,30.16,South,180,19.0,26.0,79,-99.99,,,-99.99,,2013-02-09 16:01:00,
2013-02-09 10:11:00,34.0,28.0,30.16,South,185,21.0,27.0,78,-99.99,,,-99.99,,2013-02-09 16:11:00,
2013-02-09 10:22:00,34.0,28.0,30.16,South,185,21.0,27.0,78,-99.99,,,-99.99,,2013-02-09 16:22:00,
2013-02-09 10:31:00,34.0,28.0,30.17,South,180,19.0,24.0,77,-99.99,,,-99.99,,2013-02-09 16:31:00,
2013-02-09 10:42:00,35.0,28.0,30.17,South,185,17.0,22.0,77,-99.99,,,-99.99,,2013-02-09 16:42:00,
2013-02-09 10:52:00,35.0,28.0,30.17,South,185,17.0,22.0,77,-99.99,,,-99.99,,2013-02-09 16:52:00,
2013-02-09 11:01:00,35.0,28.0,30.17,South,175,12.0,17.0,76,-99.99,,,-99.99,,2013-02-09 17:01:00,
2013-02-09 11:11:00,36.0,29.0,30.17,South,185,15.0,22.0,75,-99.99,,,-99.99,,2013-02-09 17:11:00,
2013-02-09 11:21:00,36.0,29.0,30.17,South,185,15.0,22.0,75,-99.99,,,-99.99,,2013-02-09 17:21:00,
2013-02-09 11:32:00,36.0,29.0,30.15,South,180,19.0,23.0,73,-99.99,,,-99.99,,2013-02-09 17:32:00,
2013-02-09 11:42:00,37.0,29.0,30.15,South,180,15.0,21.0,73,-99.99,,,-99.99,,2013-02-09 17:42:00,
2013-02-09 11:52:00,37.0,29.0,30.15,South,180,15.0,21.0,73,-99.99,,,-99.99,,2013-02-09 17:52:00,
2013-02-09 12:02:00,38.0,29.0,30.15,South,175,15.0,20.0,72,-99.99,,,-99.99,,2013-02-09 18:02:00,
2013-02-09 12:12:00,38.0,30.0,30.14,South,170,15.0,21.0,71,-99.99,,,-99.99,,2013-02-09 18:12:00,
2013-02-09 12:23:00,38.0,30.0,30.14,South,170,15.0,21.0,71,-99.99,,,-99.99,,2013-02-09 18:23:00,
2013-02-09 12:32:00,39.0,30.0,30.13,South,190,16.0,21.0,69,-99.99,,,-99.99,,2013-02-09 18:32:00,
2013-02-09 12:42:00,39.0,30.0,30.11,South,180,17.0,22.0,69,-99.99,,,-99.99,,2013-02-09 18:42:00,
2013-02-09 12:51:00,39.0,30.0,30.11,South,180,17.0,22.0,69,-99.99,,,-99.99,,2013-02-09 18:51:00,
2013-02-09 13:01:00,40.0,29.0,30.11,South,190,16.0,20.0,66,-99.99,,,-99.99,,2013-02-09 19:01:00,
2013-02-09 13:11:00,40.0,30.0,30.10,SSE,165,16.0,22.0,65,-99.99,,,-99.99,,2013-02-09 19:11:00,
2013-02-09 13:22:00,40.0,30.0,30.10,SSE,165,16.0,22.0,65,-99.99,,,-99.99,,2013-02-09 19:22:00,
2013-02-09 13:32:00,42.0,31.0,30.09,SSW,195,16.0,19.0,63,-99.99,,,-99.99,,2013-02-09 19:32:00,
2013-02-09 13:42:00,42.0,30.0,30.08,SSE,165,14.0,19.0,62,-99.99,,,-99.99,,2013-02-09 19:42:00,
2013-02-09 13:52:00,42.0,30.0,30.08,SSE,165,14.0,19.0,62,-99.99,,,-99.99,,2013-02-09 19:52:00,
2013-02-09 14:01:00,45.0,32.0,30.07,SSW,195,15.0,21.0,60,-99.99,,,-99.99,,2013-02-09 20:01:00,
2013-02-09 14:11:00,45.0,32.0,30.06,South,180,10.0,19.0,59,-99.99,,,-99.99,,2013-02-09 20:11:00,
2013-02-09 14:21:00,45.0,32.0,30.06,South,180,10.0,19.0,59,-99.99,,,-99.99,,2013-02-09 20:21:00,
2013-02-09 14:32:00,44.0,30.0,30.04,South,170,16.0,21.0,56,-99.99,,,-99.99,,2013-02-09 20:32:00,
2013-02-09 14:42:00,45.0,28.0,30.03,South,175,15.0,24.0,52,-99.99,,,-99.99,,2013-02-09 20:42:00,
2013-02-09 14:52:00,45.0,28.0,30.03,South,175,15.0,24.0,52,-99.99,,,-99.99,,2013-02-09 20:52:00,
2013-02-09 15:02:00,44.0,28.0,30.02,South,180,17.0,23.0,53,-99.99,,,-99.99,,2013-02-09 21:02:00,
2013-02-09 15:11:00,45.0,29.0,30.02,South,185,17.0,23.0,55,-99.99,,,-99.99,,2013-02-09 21:11:00,
2013-02-09 15:21:00,45.0,29.0,30.02,South,185,17.0,23.0,55,-99.99,,,-99.99,,2013-02-09 21:21:00,
2013-02-09 15:32:00,44.0,29.0,30.00,South,175,14.0,19.0,55,-99.99,,,-99.99,,2013-02-09 21:32:00,
2013-02-09 15:42:00,45.0,29.0,30.01,South,175,13.0,22.0,54,-99.99,,,-99.99,,2013-02-09 21:42:00,
2013-02-09 15:52:00,44.0,28.0,30.00,South,170,18.0,23.0,52,-99.99,,,-99.99,,2013-02-09 21:52:00,
2013-02-09 16:01:00,44.0,28.0,30.00,South,170,18.0,23.0,52,-99.99,,,-99.99,,2013-02-09 22:01:00,
2013-02-09 16:11:00,44.0,28.0,29.99,South,180,18.0,24.0,52,-99.99,,,-99.99,,2013-02-09 22:11:00,
2013-02-09 16:21:00,44.0,28.0,29.99,South,180,18.0,24.0,52,-99.99,,,-99.99,,2013-02-09 22:21:00,
2013-02-09 16:32:00,44.0,28.0,29.99,SSE,165,15.0,21.0,54,-99.99,,,-99.99,,2013-02-09 22:32:00,
2013-02-09 16:42:00,43.0,28.0,29.99,South,175,15.0,23.0,54,-99.99,,,-99.99,,2013-02-09 22:42:00,
2013-02-09 16:52:00,43.0,28.0,29.99,South,175,15.0,23.0,54,-99.99,,,-99.99,,2013-02-09 22:52:00,
2013-02-09 17:01:00,43.0,29.0,29.99,South,175,13.0,18.0,57,-99.99,,,-99.99,,2013-02-09 23:01:00,
2013-02-09 17:11:00,43.0,28.0,29.99,South,185,15.0,20.0,56,-99.99,,,-99.99,,2013-02-09 23:11:00,
2013-02-09 17:21:00,43.0,28.0,29.99,South,185,15.0,20.0,56,-99.99,,,-99.99,,2013-02-09 23:21:00,
2013-02-09 17:32:00,43.0,28.0,29.99,South,180,12.0,18.0,56,-99.99,,,-99.99,,2013-02-09 23:32:00,
2013-02-09 17:42:00,43.0,28.0,29.99,South,180,11.0,16.0,56,-99.99,,,-99.99,,2013-02-09 23:42:00,
2013-02-09 17:52:00,43.0,28.0,29.99,South,180,11.0,16.0,56,-99.99,,,-99.99,,2013-02-09 23:52:00,
2013-02-09 18:02:00,42.0,28.0,29.98,South,175,12.0,17.0,56,-99.99,,,-99.99,,2013-02-10 00:02:00,
2013-02-09 18:12:00,42.0,28.0,29.98,South,180,13.0,18.0,57,-99.99,,,-99.99,,2013-02-10 00:12:00,
2013-02-09 18:22:00,42.0,28.0,29.98,South,180,13.0,18.0,57,-99.99,,,-99.99,,2013-02-10 00:22:00,
2013-02-09 18:32:00,42.0,29.0,29.99,SSW,195,12.0,17.0,58,-99.99,,,-99.99,,2013-02-10 00:32:00,
2013-02-09 18:42:00,42.0,28.0,29.99,South,185,14.0,22.0,58,-99.99,,,-99.99,,2013-02-10 00:42:00,
2013-02-09 18:51:00,42.0,28.0,29.99,South,185,14.0,22.0,58,-99.99,,,-99.99,,2013-02-10 00:51:00,
2013-02-09 19:01:00,41.0,29.0,29.96,South,175,13.0,19.0,62,-99.99,,,-99.99,,2013-02-10 01:01:00,
2013-02-09 19:12:00,41.0,30.0,29.95,South,180,13.0,20.0,66,-99.99,,,-99.99,,2013-02-10 01:12:00,
2013-02-09 19:21:00,41.0,30.0,29.95,South,180,13.0,20.0,66,-99.99,,,-99.99,,2013-02-10 01:21:00,
2013-02-09 19:32:00,40.0,32.0,29.95,South,180,13.0,18.0,73,-99.99,,,-99.99,,2013-02-10 01:32:00,
2013-02-09 19:42:00,39.0,32.0,29.94,SSE,155,13.0,19.0,76,-99.99,,,-99.99,,2013-02-10 01:42:00,
2013-02-09 19:51:00,39.0,32.0,29.94,SSE,155,13.0,19.0,76,-99.99,,,-99.99,,2013-02-10 01:51:00,
2013-02-09 20:01:00,39.0,32.0,29.94,South,175,15.0,22.0,76,-99.99,,,-99.99,,2013-02-10 02:01:00,
2013-02-09 20:11:00,39.0,32.0,29.93,South,185,15.0,20.0,77,-99.99,,,-99.99,,2013-02-10 02:11:00,
2013-02-09 20:22:00,39.0,32.0,29.93,South,185,15.0,20.0,77,-99.99,,,-99.99,,2013-02-10 02:22:00,
2013-02-09 20:32:00,39.0,32.0,29.92,South,180,17.0,24.0,77,-99.99,,,-99.99,,2013-02-10 02:32:00,
2013-02-09 20:42:00,39.0,32.0,29.91,South,175,15.0,20.0,78,-99.99,,,-99.99,,2013-02-10 02:42:00,
2013-02-09 20:52:00,39.0,32.0,29.91,South,175,15.0,20.0,78,-99.99,,,-99.99,,2013-02-10 02:52:00,
2013-02-09 21:02:00,39.0,33.0,29.91,South,175,13.0,18.0,79,-99.99,,,-99.99,,2013-02-10 03:02:00,
2013-02-09 21:11:00,39.0,32.0,29.91,South,175,12.0,21.0,78,-99.99,,,-99.99,,2013-02-10 03:11:00,
2013-02-09 21:21:00,39.0,32.0,29.91,South,175,12.0,21.0,78,-99.99,,,-99.99,,2013-02-10 03:21:00,
2013-02-09 21:32:00,39.0,32.0,29.92,South,180,18.0,25.0,78,-99.99,,,-99.99,,2013-02-10 03:32:00,
2013-02-09 21:42:00,39.0,33.0,29.90,South,185,22.0,28.0,80,-99.99,,,-99.99,,2013-02-10 03:42:00,
2013-02-09 21:51:00,39.0,33.0,29.90,South,185,22.0,28.0,80,-99.99,,,-99.99,,2013-02-10 03:51:00,
2013-02-09 22:01:00,38.0,33.0,29.89,South,170,15.0,26.0,82,-99.99,,,-99.99,,2013-02-10 04:01:00,
2013-02-09 22:11:00,38.0,33.0,29.88,South,175,15.0,28.0,82,-99.99,,,-99.99,,2013-02-10 04:11:00,
2013-02-09 22:21:00,38.0,33.0,29.88,South,175,15.0,28.0,82,-99.99,,,-99.99,,2013-02-10 04:21:00,
2013-02-09 22:32:00,39.0,33.0,29.91,South,185,19.0,24.0,80,-99.99,,,-99.99,,2013-02-10 04:32:00,
2013-02-09 22:42:00,39.0,33.0,29.93,SSW,195,19.0,27.0,80,-99.99,,,-99.99,,2013-02-10 04:42:00,
2013-02-09 22:52:00,39.0,33.0,29.93,SSW,195,19.0,27.0,80,-99.99,,,-99.99,,2013-02-10 04:52:00,
2013-02-09 23:01:00,39.0,33.0,29.90,South,185,17.0,29.0,80,-99.99,,,-99.99,,2013-02-10 05:01:00,
2013-02-09 23:11:00,39.0,33.0,29.88,South,175,17.0,23.0,81,-99.99,,,-99.99,,2013-02-10 05:11:00,
2013-02-09 23:22:00,39.0,33.0,29.88,South,175,17.0,23.0,81,-99.99,,,-99.99,,2013-02-10 05:22:00,
2013-02-09 23:31:00,38.0,34.0,29.89,South,185,14.0,20.0,83,-99.99,,,-99.99,,2013-02-10 05:31:00,
2013-02-09 23:41:00,39.0,34.0,29.87,SSE,165,14.0,21.0,83,-99.99,,,-99.99,,2013-02-10 05:41:00,
2013-02-09 23:52:00,39.0,34.0,29.87,SSE,165,14.0,21.0,83,-99.99,,,-99.99,,2013-02-10 05:52:00,